Time;durP1;ratioP1;P1;durP2;ratioP2;P2;SDS_P1;SDS_P2;PMS_P1;PMS_P2;Temp;Humidity;BMP_temperature;BMP_pressure;BME280_temperature;BME280_humidity;BME280_pressure;Samples;Min_cycle;Max_cycle;Signal;HPM_P1;HPM_P2
2021/12/08 00:00:46;;;;;;;7.93;2.03;;;4.90;99.90;;;;;;5006874;28;20056;-62
2021/12/08 00:03:13;;;;;;;7.75;2.20;;;5.00;99.90;;;;;;5007756;28;20033;-62
2021/12/08 00:05:44;;;;;;;5.10;1.58;;;5.00;99.90;;;;;;5007547;28;20069;-60
2021/12/08 00:08:13;;;;;;;4.60;1.90;;;5.00;99.90;;;;;;5008025;28;20050;-61
2021/12/08 00:13:29;;;;;;;7.18;2.58;;;5.00;99.90;;;;;;5012021;28;20044;-61
2021/12/08 00:16:01;;;;;;;5.85;1.73;;;5.00;99.90;;;;;;5009935;28;20123;-62
2021/12/08 00:18:32;;;;;;;6.43;2.05;;;5.00;99.90;;;;;;5008321;28;20057;-62
2021/12/08 00:21:00;;;;;;;4.63;1.95;;;4.90;99.90;;;;;;5007500;28;20029;-61
2021/12/08 00:23:27;;;;;;;7.75;1.88;;;5.00;99.90;;;;;;5007520;28;20099;-60
2021/12/08 00:25:54;;;;;;;8.90;1.90;;;5.10;99.90;;;;;;5010398;28;20037;-61
2021/12/08 00:28:20;;;;;;;9.02;2.65;;;5.10;99.90;;;;;;5010298;28;20045;-61
2021/12/08 00:30:49;;;;;;;5.55;1.88;;;5.20;99.90;;;;;;5010525;28;20394;-63
2021/12/08 00:33:16;;;;;;;3.60;1.38;;;5.20;99.90;;;;;;5011070;28;20689;-62
2021/12/08 00:35:45;;;;;;;8.93;2.92;;;5.20;99.90;;;;;;5010378;28;20439;-61
2021/12/08 00:38:11;;;;;;;7.68;2.28;;;5.30;99.90;;;;;;5010289;28;20141;-61
2021/12/08 00:40:37;;;;;;;4.78;2.30;;;5.30;99.90;;;;;;5010924;28;20525;-61
2021/12/08 00:43:06;;;;;;;8.23;1.60;;;5.30;99.90;;;;;;5009790;28;20496;-60
2021/12/08 00:45:32;;;;;;;5.20;2.25;;;5.40;99.90;;;;;;5010921;28;20132;-61
2021/12/08 00:47:58;;;;;;;2.90;1.70;;;5.40;99.90;;;;;;5010239;28;20026;-61
2021/12/08 00:50:27;;;;;;;11.52;2.72;;;5.40;99.90;;;;;;5011230;28;20030;-62
2021/12/08 00:52:54;;;;;;;5.97;1.80;;;5.40;99.90;;;;;;5005271;28;20033;-60
2021/12/08 00:55:20;;;;;;;6.53;2.10;;;5.40;99.90;;;;;;5009450;28;20099;-61
2021/12/08 00:57:46;;;;;;;7.63;2.30;;;5.40;99.90;;;;;;5009906;28;20026;-61
2021/12/08 01:00:20;;;;;;;8.65;2.28;;;5.50;99.90;;;;;;5010098;28;20037;-61
2021/12/08 01:02:46;;;;;;;6.88;3.65;;;5.50;99.90;;;;;;5013292;28;20560;-61
2021/12/08 01:05:15;;;;;;;6.85;2.40;;;5.60;99.90;;;;;;5010256;28;20049;-62
2021/12/08 01:07:42;;;;;;;8.02;2.55;;;5.60;99.90;;;;;;5010021;28;20117;-61
2021/12/08 01:10:12;;;;;;;3.40;1.95;;;5.60;99.90;;;;;;5010542;28;20061;-61
2021/12/08 01:12:38;;;;;;;7.43;1.97;;;5.70;99.90;;;;;;5009945;28;20703;-61
2021/12/08 01:15:04;;;;;;;3.53;1.80;;;5.70;99.90;;;;;;5011127;28;20273;-61
2021/12/08 01:17:30;;;;;;;5.47;2.17;;;5.60;99.90;;;;;;5010775;28;20490;-61
2021/12/08 01:19:56;;;;;;;4.78;1.88;;;5.70;99.90;;;;;;5009505;28;20044;-61
2021/12/08 01:22:21;;;;;;;6.68;2.28;;;5.70;99.90;;;;;;5009455;28;20037;-61
2021/12/08 01:24:47;;;;;;;7.60;1.70;;;5.70;99.90;;;;;;5009419;28;20038;-61
2021/12/08 01:27:12;;;;;;;3.13;1.77;;;5.80;99.90;;;;;;5008919;28;20034;-60
2021/12/08 01:29:39;;;;;;;4.97;1.67;;;5.80;99.90;;;;;;5009006;28;20509;-61
2021/12/08 01:32:07;;;;;;;5.40;2.00;;;5.80;99.90;;;;;;5010451;28;20040;-60
2021/12/08 01:34:33;;;;;;;3.47;1.70;;;5.80;99.90;;;;;;5008386;28;20029;-61
2021/12/08 01:36:59;;;;;;;7.32;2.17;;;5.90;99.90;;;;;;5008951;28;20498;-61
2021/12/08 01:39:24;;;;;;;4.22;1.55;;;5.90;99.90;;;;;;5010286;28;20044;-60
2021/12/08 01:41:52;;;;;;;3.05;1.60;;;5.90;99.90;;;;;;5009214;28;20030;-62
2021/12/08 01:47:03;;;;;;;6.35;1.83;;;5.90;99.90;;;;;;5007065;28;20437;-61
2021/12/08 01:49:29;;;;;;;3.90;1.92;;;5.90;99.90;;;;;;5009968;28;20045;-61
2021/12/08 01:51:54;;;;;;;7.30;2.35;;;5.90;99.90;;;;;;5009140;28;20069;-60
2021/12/08 01:54:20;;;;;;;3.30;1.88;;;5.90;99.90;;;;;;5009285;28;20073;-61
2021/12/08 01:56:45;;;;;;;6.60;1.17;;;5.90;99.90;;;;;;5008827;28;20486;-61
2021/12/08 01:59:11;;;;;;;3.05;1.60;;;5.90;99.90;;;;;;5010107;28;20042;-61
2021/12/08 02:01:40;;;;;;;4.65;1.67;;;6.00;99.90;;;;;;5005656;28;20120;-63
2021/12/08 02:04:06;;;;;;;5.40;1.50;;;6.00;99.90;;;;;;5007709;28;20132;-61
2021/12/08 02:06:35;;;;;;;4.43;1.77;;;5.90;99.90;;;;;;5009407;28;20110;-60
2021/12/08 02:09:03;;;;;;;4.88;1.92;;;6.00;99.90;;;;;;5009255;28;20116;-60
2021/12/08 02:11:29;;;;;;;2.90;1.50;;;5.90;99.90;;;;;;5008387;28;20782;-63
2021/12/08 02:14:00;;;;;;;3.13;1.30;;;5.90;99.90;;;;;;5013970;28;20041;-61
2021/12/08 02:16:26;;;;;;;3.95;1.67;;;5.90;99.90;;;;;;5008379;28;20105;-61
2021/12/08 02:18:52;;;;;;;4.55;1.35;;;6.00;99.90;;;;;;5010698;28;20095;-60
2021/12/08 02:21:38;;;;;;;6.07;1.48;;;6.00;99.90;;;;;;5004213;28;20042;-61
2021/12/08 02:24:07;;;;;;;2.92;1.30;;;6.10;99.90;;;;;;5007210;28;20038;-63
2021/12/08 02:26:34;;;;;;;7.63;1.40;;;6.00;99.90;;;;;;5007652;28;20546;-61
2021/12/08 02:29:04;;;;;;;7.53;1.85;;;6.10;99.90;;;;;;5010007;28;20033;-60
2021/12/08 02:31:42;;;;;;;4.68;1.63;;;6.10;99.90;;;;;;5009333;28;20126;-61
2021/12/08 02:50:18;;;;;;;7.68;1.50;;;6.20;99.90;;;;;;5009352;28;20112;-61
2021/12/08 02:52:44;;;;;;;4.32;1.77;;;6.20;99.90;;;;;;5008139;28;20043;-61
2021/12/08 02:55:10;;;;;;;3.85;1.85;;;6.20;99.90;;;;;;5008674;28;20042;-61
2021/12/08 02:57:36;;;;;;;8.40;1.95;;;6.30;99.90;;;;;;5008338;28;20183;-61
2021/12/08 03:00:06;;;;;;;4.82;1.77;;;6.20;99.90;;;;;;5006969;28;20030;-60
2021/12/08 03:02:32;;;;;;;5.38;1.92;;;6.20;99.90;;;;;;5007397;28;20093;-61
2021/12/08 03:04:57;;;;;;;7.75;2.03;;;6.20;99.90;;;;;;5008120;28;20081;-62
2021/12/08 03:07:23;;;;;;;4.95;2.03;;;6.30;99.90;;;;;;5007380;28;20495;-61
2021/12/08 03:09:48;;;;;;;12.10;1.92;;;6.20;99.90;;;;;;5008111;28;20490;-62
2021/12/08 03:12:14;;;;;;;3.95;1.70;;;6.20;99.90;;;;;;5004613;28;20050;-61
2021/12/08 03:14:40;;;;;;;9.93;2.03;;;6.20;99.90;;;;;;5008410;28;20034;-61
2021/12/08 03:17:09;;;;;;;3.90;2.33;;;6.20;99.90;;;;;;5008305;28;20036;-61
2021/12/08 03:19:35;;;;;;;7.10;2.67;;;6.20;99.90;;;;;;5012587;28;20108;-61
2021/12/08 03:22:09;;;;;;;7.40;2.40;;;6.20;99.90;;;;;;5007761;28;20038;-62
2021/12/08 03:24:37;;;;;;;6.68;1.95;;;6.20;99.90;;;;;;5008696;28;20037;-62
2021/12/08 03:27:11;;;;;;;11.40;2.13;;;6.10;99.90;;;;;;5007783;28;20034;-61
2021/12/08 03:29:49;;;;;;;5.45;1.90;;;6.10;99.90;;;;;;5008429;28;20033;-66
2021/12/08 03:32:24;;;;;;;5.55;1.77;;;6.20;99.90;;;;;;5004706;28;20116;-60
2021/12/08 03:34:53;;;;;;;8.07;2.40;;;6.20;99.90;;;;;;5004564;28;20367;-61
2021/12/08 03:37:25;;;;;;;6.32;1.88;;;6.30;99.90;;;;;;5006885;28;20152;-62
2021/12/08 03:39:51;;;;;;;10.07;1.92;;;6.30;99.90;;;;;;5007417;28;20042;-60
2021/12/08 03:42:21;;;;;;;7.63;1.55;;;6.20;99.90;;;;;;5008520;28;20084;-60
2021/12/08 03:44:48;;;;;;;6.60;1.58;;;6.20;99.90;;;;;;5007653;28;20548;-60
2021/12/08 03:47:17;;;;;;;4.75;1.55;;;6.20;99.90;;;;;;5007085;28;20149;-61
2021/12/08 03:49:46;;;;;;;6.03;1.73;;;6.10;99.90;;;;;;5007367;28;20513;-61
2021/12/08 03:52:12;;;;;;;14.32;2.50;;;6.10;99.90;;;;;;5007739;28;20038;-61
2021/12/08 03:54:38;;;;;;;12.13;1.60;;;6.00;99.90;;;;;;5009921;28;20096;-65
2021/12/08 03:57:05;;;;;;;8.60;1.88;;;6.10;99.90;;;;;;5010489;28;20030;-61
2021/12/08 03:59:31;;;;;;;2.92;1.08;;;6.10;99.90;;;;;;5012195;28;20037;-61
2021/12/08 04:01:57;;;;;;;7.47;2.78;;;6.10;99.90;;;;;;5011291;28;20044;-62
2021/12/08 04:04:27;;;;;;;10.25;1.77;;;6.20;99.90;;;;;;5011738;28;20042;-61
2021/12/08 04:06:53;;;;;;;4.47;1.42;;;6.10;99.90;;;;;;5011233;28;20486;-61
2021/12/08 04:09:32;;;;;;;4.90;1.52;;;6.10;99.90;;;;;;5011949;28;20038;-61
2021/12/08 04:11:59;;;;;;;8.35;1.60;;;6.10;99.90;;;;;;5010853;28;20044;-61
2021/12/08 04:14:29;;;;;;;10.63;1.23;;;6.10;99.90;;;;;;5015597;28;20069;-60
2021/12/08 04:17:05;;;;;;;3.70;0.80;;;6.20;99.90;;;;;;5010410;28;20072;-61
2021/12/08 04:19:32;;;;;;;9.98;1.27;;;6.10;99.90;;;;;;5018653;28;20026;-61
2021/12/08 04:22:02;;;;;;;8.80;1.38;;;6.10;99.90;;;;;;5010287;28;20206;-60
2021/12/08 04:24:27;;;;;;;7.25;1.67;;;6.10;99.90;;;;;;5011422;28;20120;-61
2021/12/08 04:27:00;;;;;;;6.07;1.45;;;6.20;99.90;;;;;;5010355;28;20126;-61
2021/12/08 04:29:30;;;;;;;9.65;2.60;;;6.20;99.90;;;;;;5011372;28;20030;-62
2021/12/08 04:31:57;;;;;;;8.38;1.33;;;6.10;99.90;;;;;;5010285;28;20038;-61
2021/12/08 04:34:32;;;;;;;7.93;2.75;;;6.20;99.90;;;;;;5011246;28;20061;-62
2021/12/08 04:37:02;;;;;;;7.00;1.63;;;6.20;99.90;;;;;;5010516;28;20038;-62
2021/12/08 04:40:08;;;;;;;7.65;0.90;;;6.20;99.90;;;;;;5011312;28;20048;-61
2021/12/08 04:42:32;;;;;;;8.52;1.30;;;6.20;99.90;;;;;;5007837;28;20029;-61
2021/12/08 04:45:07;;;;;;;6.40;1.10;;;6.20;99.90;;;;;;5010116;28;20038;-62
2021/12/08 04:47:35;;;;;;;6.82;1.10;;;6.20;99.90;;;;;;5011189;28;20410;-61
2021/12/08 04:50:28;;;;;;;4.72;1.25;;;6.20;99.90;;;;;;5009904;28;20026;-61
2021/12/08 04:53:02;;;;;;;4.20;0.98;;;6.20;99.90;;;;;;5008166;28;20823;-62
2021/12/08 05:01:34;;;;;;;8.45;1.80;;;6.00;99.90;;;;;;5028434;28;20115;-62
2021/12/08 05:06:59;;;;;;;4.40;1.25;;;5.90;99.90;;;;;;5025623;28;20037;-61
2021/12/08 05:09:29;;;;;;;4.25;0.80;;;5.90;99.90;;;;;;5028848;28;20033;-62
2021/12/08 05:12:03;;;;;;;3.90;0.87;;;5.80;99.90;;;;;;5029501;28;20034;-62
2021/12/08 05:14:38;;;;;;;10.90;1.75;;;5.80;99.90;;;;;;5033754;28;20086;-60
2021/12/08 05:17:12;;;;;;;6.68;1.30;;;5.70;99.90;;;;;;5028132;28;20034;-62
2021/12/08 05:19:39;;;;;;;10.73;2.50;;;5.70;99.90;;;;;;5028640;28;20029;-61
2021/12/08 05:22:14;;;;;;;6.78;1.10;;;5.70;99.90;;;;;;5029926;28;20025;-61
2021/12/08 05:24:44;;;;;;;8.73;1.30;;;5.70;99.90;;;;;;5025697;28;20033;-62
2021/12/08 05:27:20;;;;;;;5.40;0.90;;;5.70;99.90;;;;;;5024512;28;20025;-61
2021/12/08 05:29:52;;;;;;;9.65;1.08;;;5.60;99.90;;;;;;5026110;28;20465;-60
2021/12/08 05:32:18;;;;;;;6.50;1.00;;;5.60;99.90;;;;;;5029033;28;20527;-61
2021/12/08 05:34:44;;;;;;;4.00;1.25;;;5.50;99.90;;;;;;5028944;28;20041;-61
2021/12/08 05:37:14;;;;;;;7.25;1.10;;;5.50;99.90;;;;;;5029917;28;20052;-61
2021/12/08 05:39:40;;;;;;;6.35;0.60;;;5.50;99.90;;;;;;5026988;28;20501;-61
2021/12/08 05:42:11;;;;;;;3.60;0.68;;;5.40;99.90;;;;;;5025489;28;20034;-61
2021/12/08 05:44:37;;;;;;;14.05;1.13;;;5.40;99.90;;;;;;5025938;28;20037;-62
2021/12/08 05:47:07;;;;;;;3.88;0.88;;;5.40;99.90;;;;;;5028585;28;20068;-61
2021/12/08 05:49:34;;;;;;;4.83;1.00;;;5.40;99.90;;;;;;5027588;28;20037;-61
2021/12/08 05:52:00;;;;;;;4.22;0.60;;;5.30;99.90;;;;;;5026683;28;20586;-63
2021/12/08 05:54:32;;;;;;;6.75;1.35;;;5.20;99.90;;;;;;5029388;28;20025;-61
2021/12/08 05:57:04;;;;;;;4.57;1.20;;;5.20;99.90;;;;;;5026463;28;20540;-60
2021/12/08 05:59:32;;;;;;;9.20;1.30;;;5.20;99.90;;;;;;5027835;28;20033;-61
2021/12/08 06:02:08;;;;;;;4.85;0.93;;;5.20;99.90;;;;;;5028186;28;20604;-61
2021/12/08 06:04:34;;;;;;;3.30;0.80;;;5.10;99.90;;;;;;5028113;28;20425;-62
2021/12/08 06:07:01;;;;;;;7.45;0.60;;;5.10;99.90;;;;;;5027674;28;20053;-61
2021/12/08 06:09:28;;;;;;;7.22;0.80;;;5.00;99.90;;;;;;5027284;28;20108;-60
2021/12/08 06:11:55;;;;;;;4.95;0.45;;;5.00;99.90;;;;;;5027903;28;20120;-61
2021/12/08 06:14:25;;;;;;;3.60;0.68;;;5.00;99.90;;;;;;5031845;28;20036;-62
2021/12/08 06:16:52;;;;;;;11.57;1.58;;;4.90;99.90;;;;;;5023799;28;20109;-61
2021/12/08 06:19:19;;;;;;;8.60;1.48;;;4.90;99.90;;;;;;5031154;28;20412;-61
2021/12/08 06:21:45;;;;;;;4.97;0.80;;;4.90;99.90;;;;;;5027890;28;20057;-61
2021/12/08 06:24:14;;;;;;;4.97;0.50;;;4.90;99.90;;;;;;5029062;28;20072;-60
2021/12/08 06:26:42;;;;;;;8.77;1.85;;;4.90;99.90;;;;;;5024882;28;20217;-61
2021/12/08 06:29:11;;;;;;;5.80;0.47;;;4.90;99.90;;;;;;5027916;28;20038;-62
2021/12/08 06:31:38;;;;;;;7.68;0.75;;;4.90;99.90;;;;;;5028031;28;20044;-61
2021/12/08 06:34:05;;;;;;;7.68;1.27;;;4.90;99.90;;;;;;5023542;28;20030;-62
2021/12/08 06:36:38;;;;;;;8.38;0.93;;;4.90;99.90;;;;;;5026283;28;20033;-64
2021/12/08 06:39:11;;;;;;;6.22;0.80;;;4.80;99.90;;;;;;5023453;28;20042;-63
2021/12/08 06:41:45;;;;;;;3.58;0.50;;;4.80;99.90;;;;;;5024482;28;20030;-61
2021/12/08 06:44:17;;;;;;;6.80;1.25;;;4.80;99.90;;;;;;5026856;28;20504;-63
2021/12/08 06:46:44;;;;;;;8.98;1.30;;;4.80;99.90;;;;;;5025948;28;20052;-62
2021/12/08 06:49:12;;;;;;;4.28;0.73;;;4.70;99.90;;;;;;5028355;28;20034;-61
2021/12/08 06:51:51;;;;;;;8.43;1.60;;;4.70;99.90;;;;;;5027078;28;20067;-62
2021/12/08 06:54:26;;;;;;;8.48;0.63;;;4.60;99.90;;;;;;5027612;28;20084;-61
2021/12/08 06:57:00;;;;;;;8.93;1.13;;;4.70;99.90;;;;;;5024807;28;20034;-61
2021/12/08 06:59:34;;;;;;;3.92;0.85;;;4.60;99.90;;;;;;5027518;28;20037;-62
2021/12/08 07:02:08;;;;;;;6.20;0.85;;;4.60;99.90;;;;;;5026440;28;20122;-61
2021/12/08 07:04:53;;;;;;;7.30;0.80;;;4.60;99.90;;;;;;5022141;28;20082;-61
2021/12/08 07:07:23;;;;;;;9.40;0.70;;;4.60;99.90;;;;;;5025074;28;20041;-61
2021/12/08 07:09:57;;;;;;;4.85;0.70;;;4.50;99.90;;;;;;5026774;28;20120;-61
2021/12/08 07:12:33;;;;;;;2.30;0.63;;;4.50;99.90;;;;;;5024923;28;20044;-62
2021/12/08 07:15:09;;;;;;;6.22;1.10;;;4.50;99.90;;;;;;5028258;28;20030;-61
2021/12/08 07:17:40;;;;;;;7.20;1.38;;;4.50;99.90;;;;;;5026344;28;20055;-61
2021/12/08 07:20:28;;;;;;;9.95;2.15;;;4.60;99.90;;;;;;5030531;28;20389;-61
2021/12/08 07:22:54;;;;;;;4.13;1.00;;;4.60;99.90;;;;;;5030907;28;20117;-62
2021/12/08 07:25:25;;;;;;;3.90;0.73;;;4.60;99.90;;;;;;5030538;28;20034;-63
2021/12/08 07:27:52;;;;;;;11.32;1.95;;;4.70;99.90;;;;;;5029619;28;20068;-61
2021/12/08 07:30:22;;;;;;;5.50;1.10;;;4.60;99.90;;;;;;5028002;28;20124;-61
2021/12/08 07:32:48;;;;;;;;;;;4.60;99.90;;;;;;5030943;28;20033;-61
2021/12/08 07:35:19;;;;;;;3.80;0.65;;;4.60;99.90;;;;;;5032005;28;19924;-61
2021/12/08 07:37:45;;;;;;;8.32;1.10;;;4.60;99.90;;;;;;5031552;28;20030;-63
2021/12/08 07:40:41;;;;;;;4.18;1.00;;;4.60;99.90;;;;;;5032210;28;20037;-63
2021/12/08 07:43:12;;;;;;;6.93;1.17;;;4.60;99.90;;;;;;5028076;28;20029;-62
2021/12/08 07:45:52;;;;;;;8.02;0.80;;;4.60;99.90;;;;;;5031389;28;20044;-63
2021/12/08 07:48:23;;;;;;;8.52;1.10;;;4.60;99.90;;;;;;5031094;28;20048;-62
2021/12/08 07:51:11;;;;;;;6.30;1.33;;;4.60;99.90;;;;;;5029622;28;20084;-61
2021/12/08 07:53:37;;;;;;;10.95;1.95;;;4.50;99.90;;;;;;5028787;28;20033;-61
2021/12/08 07:56:06;;;;;;;7.07;1.52;;;4.50;99.90;;;;;;5031021;28;20033;-61
2021/12/08 07:58:34;;;;;;;4.00;1.15;;;4.60;99.90;;;;;;5032164;28;20044;-61
2021/12/08 08:01:05;;;;;;;4.32;0.90;;;4.60;99.90;;;;;;5025187;28;20057;-62
2021/12/08 08:03:32;;;;;;;8.85;1.20;;;4.50;99.90;;;;;;5029862;28;20041;-61
2021/12/08 08:06:01;;;;;;;6.35;1.13;;;4.60;99.90;;;;;;5024719;28;21523;-61
2021/12/08 08:08:30;;;;;;;6.45;1.10;;;4.60;99.90;;;;;;5031763;28;20494;-62
2021/12/08 08:11:08;;;;;;;4.18;1.00;;;4.50;99.90;;;;;;5030683;28;20082;-61
2021/12/08 08:13:34;;;;;;;10.90;1.00;;;4.60;99.90;;;;;;5029568;28;20037;-61
2021/12/08 08:16:06;;;;;;;9.90;1.13;;;4.60;99.90;;;;;;5033607;28;20026;-61
2021/12/08 08:18:35;;;;;;;7.95;1.05;;;4.50;99.90;;;;;;5023375;28;20025;-63
2021/12/08 08:21:07;;;;;;;4.43;0.80;;;4.40;99.90;;;;;;5028408;28;20029;-61
2021/12/08 08:23:34;;;;;;;5.30;1.00;;;4.40;99.90;;;;;;5028387;28;20030;-62
2021/12/08 08:26:02;;;;;;;5.15;0.85;;;4.40;99.90;;;;;;5030958;28;20512;-62
2021/12/08 08:28:28;;;;;;;8.07;1.63;;;4.50;99.90;;;;;;5029167;28;20032;-62
2021/12/08 08:31:03;;;;;;;5.28;0.77;;;4.50;99.90;;;;;;5029952;28;20029;-63
2021/12/08 08:33:31;;;;;;;7.88;1.15;;;4.50;99.90;;;;;;5028837;28;20036;-64
2021/12/08 08:36:03;;;;;;;5.78;1.10;;;4.50;99.90;;;;;;5028878;28;20038;-62
2021/12/08 08:38:35;;;;;;;3.75;0.50;;;4.50;99.90;;;;;;5032352;28;20037;-62
2021/12/08 08:41:27;;;;;;;8.32;1.25;;;4.50;99.90;;;;;;5033680;28;20036;-62
2021/12/08 08:43:55;;;;;;;4.15;0.60;;;4.50;99.90;;;;;;5022151;28;20064;-62
2021/12/08 08:46:26;;;;;;;4.15;0.70;;;4.50;99.90;;;;;;5030771;28;20143;-62
2021/12/08 08:48:58;;;;;;;;;;;4.60;99.90;;;;;;5030653;28;20021;-62
2021/12/08 08:51:33;;;;;;;9.32;1.35;;;4.70;99.90;;;;;;5029415;28;19913;-62
2021/12/08 08:54:08;;;;;;;6.13;0.80;;;4.70;99.90;;;;;;5028129;28;20037;-62
2021/12/08 08:56:47;;;;;;;11.25;1.25;;;4.70;99.90;;;;;;5027486;28;20041;-62
2021/12/08 08:59:19;;;;;;;5.95;0.80;;;4.70;99.90;;;;;;5030438;28;20025;-62
2021/12/08 09:01:49;;;;;;;4.75;0.90;;;4.80;99.90;;;;;;5029667;28;20444;-62
2021/12/08 09:04:23;;;;;;;7.47;0.87;;;4.80;99.90;;;;;;5027864;28;20112;-62
2021/12/08 09:06:52;;;;;;;2.22;0.60;;;4.90;99.90;;;;;;5027656;28;20062;-62
2021/12/08 09:09:22;;;;;;;11.98;2.22;;;4.90;99.90;;;;;;5028964;28;20033;-62
2021/12/08 09:11:54;;;;;;;8.18;0.57;;;4.90;99.90;;;;;;5029210;28;20034;-62
2021/12/08 09:14:32;;;;;;;2.53;1.23;;;5.00;99.90;;;;;;5031902;28;20025;-61
2021/12/08 09:17:03;;;;;;;2.13;0.45;;;5.10;99.90;;;;;;5025311;28;20065;-61
2021/12/08 09:19:36;;;;;;;3.85;1.10;;;5.10;99.90;;;;;;5028535;28;20040;-62
2021/12/08 09:22:10;;;;;;;4.50;1.05;;;5.20;99.90;;;;;;5025633;28;20108;-62
2021/12/08 09:24:56;;;;;;;3.55;0.63;;;5.20;99.90;;;;;;5028136;28;20059;-62
2021/12/08 09:27:31;;;;;;;6.85;0.75;;;5.30;99.90;;;;;;5028558;28;20028;-63
2021/12/08 09:30:05;;;;;;;11.38;2.38;;;5.30;99.90;;;;;;5025299;28;20057;-61
2021/12/08 09:32:46;;;;;;;6.78;1.20;;;5.30;99.90;;;;;;5026811;28;20033;-62
2021/12/08 09:35:23;;;;;;;1.80;0.50;;;5.30;99.90;;;;;;5029079;28;20060;-62
2021/12/08 09:37:55;;;;;;;4.90;0.40;;;5.40;99.90;;;;;;5027767;28;20033;-62
2021/12/08 09:40:33;;;;;;;3.65;1.02;;;5.50;99.90;;;;;;5029900;28;20095;-61
2021/12/08 09:43:05;;;;;;;3.63;0.60;;;5.50;99.90;;;;;;5023990;28;20266;-61
2021/12/08 09:45:41;;;;;;;8.15;1.42;;;5.60;99.90;;;;;;5025139;28;20037;-62
2021/12/08 09:48:08;;;;;;;4.90;1.35;;;5.60;99.90;;;;;;5027577;28;20041;-61
2021/12/08 09:50:35;;;;;;;5.32;1.40;;;5.60;99.90;;;;;;5031907;28;20443;-61
2021/12/08 09:53:01;;;;;;;4.03;0.40;;;5.60;99.90;;;;;;5031416;28;20045;-62
2021/12/08 09:55:27;;;;;;;6.90;0.82;;;5.60;99.90;;;;;;5032066;28;20037;-62
2021/12/08 09:57:53;;;;;;;4.45;1.45;;;5.60;99.90;;;;;;5025505;28;20593;-63
2021/12/08 10:00:35;;;;;;;7.20;0.95;;;5.60;99.90;;;;;;5025539;28;20634;-61
2021/12/08 10:03:04;;;;;;;3.33;0.50;;;5.70;99.90;;;;;;5027152;28;20771;-62
2021/12/08 10:05:33;;;;;;;1.98;0.65;;;5.80;99.90;;;;;;5026861;28;20052;-63
2021/12/08 10:07:59;;;;;;;5.70;0.65;;;5.90;99.90;;;;;;5032539;28;20563;-61
2021/12/08 10:10:26;;;;;;;3.05;1.08;;;6.00;99.90;;;;;;5028707;28;20092;-61
2021/12/08 10:12:52;;;;;;;3.22;0.50;;;6.00;99.90;;;;;;5026708;28;20048;-61
2021/12/08 10:15:21;;;;;;;3.92;1.00;;;6.10;99.90;;;;;;5028073;28;20640;-62
2021/12/08 10:17:47;;;;;;;5.75;0.70;;;6.00;99.90;;;;;;5024299;28;20029;-62
2021/12/08 10:20:18;;;;;;;1.45;0.47;;;6.00;99.90;;;;;;5027720;28;20092;-62
2021/12/08 10:22:48;;;;;;;5.65;1.75;;;6.10;99.90;;;;;;5027024;28;20037;-62
2021/12/08 10:25:23;;;;;;;2.53;1.27;;;6.10;99.90;;;;;;5026036;28;20092;-62
2021/12/08 10:28:09;;;;;;;8.85;1.35;;;6.10;99.90;;;;;;5026431;28;20052;-63
2021/12/08 10:30:49;;;;;;;6.70;1.00;;;6.10;99.90;;;;;;5031358;28;20826;-61
2021/12/08 10:36:56;;;;;;;4.00;0.90;;;6.10;99.90;;;;;;5028023;28;20493;-62
2021/12/08 10:39:32;;;;;;;3.58;0.80;;;6.20;99.90;;;;;;5026594;28;20033;-61
2021/12/08 10:42:18;;;;;;;3.60;1.05;;;6.20;99.90;;;;;;5022239;28;20085;-63
2021/12/08 10:45:02;;;;;;;2.33;1.13;;;6.20;99.90;;;;;;5031442;28;20049;-61
2021/12/08 10:47:39;;;;;;;4.57;0.98;;;6.40;99.90;;;;;;5028443;28;20037;-62
2021/12/08 10:55:32;;;;;;;1.65;0.68;;;6.30;99.90;;;;;;5019213;28;20048;-62
2021/12/08 10:57:58;;;;;;;4.78;0.77;;;6.30;99.90;;;;;;5024118;28;20033;-62
2021/12/08 11:00:30;;;;;;;1.48;0.70;;;6.40;99.90;;;;;;5023535;28;20036;-62
2021/12/08 11:03:02;;;;;;;4.93;0.80;;;6.50;99.90;;;;;;5025568;28;20046;-63
2021/12/08 11:05:57;;;;;;;7.63;1.83;;;6.50;99.90;;;;;;5021960;28;20127;-61
2021/12/08 11:08:30;;;;;;;4.55;0.68;;;6.50;99.90;;;;;;5024238;28;20045;-62
2021/12/08 11:11:02;;;;;;;2.22;1.00;;;6.60;99.90;;;;;;5022291;28;20052;-63
2021/12/08 11:13:33;;;;;;;6.28;0.90;;;6.60;99.90;;;;;;5026395;28;20164;-61
2021/12/08 11:16:12;;;;;;;4.90;1.52;;;6.70;99.90;;;;;;5023768;28;20040;-63
2021/12/08 11:18:44;;;;;;;2.03;0.73;;;6.60;99.90;;;;;;5021237;28;20719;-61
2021/12/08 11:21:23;;;;;;;8.77;1.30;;;6.60;99.90;;;;;;5024196;28;20464;-61
2021/12/08 11:23:51;;;;;;;3.63;0.68;;;6.70;99.90;;;;;;5026514;28;20025;-62
2021/12/08 11:26:41;;;;;;;2.38;1.10;;;6.70;99.90;;;;;;5022162;28;20033;-65
2021/12/08 11:29:27;;;;;;;12.43;1.30;;;6.60;99.90;;;;;;5022611;28;20041;-62
2021/12/08 11:32:01;;;;;;;4.22;0.90;;;6.50;99.90;;;;;;5027392;28;20037;-62
2021/12/08 11:34:28;;;;;;;6.57;0.98;;;6.50;99.90;;;;;;5025416;28;20034;-62
2021/12/08 11:37:01;;;;;;;5.50;1.10;;;6.50;99.90;;;;;;5025419;28;20030;-62
2021/12/08 11:39:42;;;;;;;5.13;1.25;;;6.50;99.90;;;;;;5024080;28;20033;-61
2021/12/08 11:42:16;;;;;;;;;;;6.40;99.90;;;;;;5021254;28;20045;-62
2021/12/08 11:44:47;;;;;;;7.03;1.65;;;6.40;99.90;;;;;;5024269;28;19921;-62
2021/12/08 11:47:15;;;;;;;3.78;0.82;;;6.50;99.90;;;;;;5026742;28;20040;-61
2021/12/08 11:49:45;;;;;;;3.22;0.80;;;6.40;99.90;;;;;;5024066;28;20524;-62
2021/12/08 11:52:15;;;;;;;2.83;1.50;;;6.50;99.90;;;;;;5022846;28;20033;-61
2021/12/08 11:55:02;;;;;;;3.70;0.85;;;6.40;99.90;;;;;;5025213;28;20393;-62
2021/12/08 11:57:36;;;;;;;6.50;1.20;;;6.50;99.90;;;;;;5022114;28;20037;-63
2021/12/08 12:00:17;;;;;;;4.75;0.95;;;6.50;99.90;;;;;;5025696;28;20093;-62
2021/12/08 12:02:51;;;;;;;4.57;0.95;;;6.50;99.90;;;;;;5023744;28;20068;-62
2021/12/08 12:05:20;;;;;;;2.40;0.60;;;6.50;99.90;;;;;;5024048;28;20034;-62
2021/12/08 12:07:47;;;;;;;0.90;0.68;;;6.50;99.90;;;;;;5026333;28;20060;-62
2021/12/08 12:10:15;;;;;;;2.42;0.90;;;6.50;99.90;;;;;;5025362;28;20524;-62
2021/12/08 12:12:41;;;;;;;3.53;0.82;;;6.50;99.90;;;;;;5028855;28;20033;-62
2021/12/08 12:15:14;;;;;;;1.42;0.57;;;6.50;99.90;;;;;;5028809;28;20044;-62
2021/12/08 12:17:39;;;;;;;5.38;0.90;;;6.50;99.90;;;;;;5029797;28;20045;-61
2021/12/08 12:20:25;;;;;;;1.50;0.60;;;6.60;99.90;;;;;;5027071;28;20042;-62
2021/12/08 12:23:25;;;;;;;7.80;0.88;;;6.50;99.90;;;;;;5029088;28;20046;-62
2021/12/08 12:26:23;;;;;;;2.63;0.63;;;6.50;99.90;;;;;;5028770;28;20116;-61
2021/12/08 12:29:11;;;;;;;1.05;0.82;;;6.60;99.90;;;;;;5026047;28;20489;-62
2021/12/08 12:32:17;;;;;;;3.83;0.98;;;6.60;99.90;;;;;;5028023;28;20637;-62
2021/12/08 12:34:43;;;;;;;8.60;1.00;;;6.60;99.90;;;;;;5003080;28;20489;-62
2021/12/08 12:37:15;;;;;;;4.53;1.58;;;6.60;99.90;;;;;;5006766;28;20045;-61
2021/12/08 12:39:55;;;;;;;1.60;0.55;;;6.60;99.90;;;;;;5008301;28;20121;-63
2021/12/08 12:42:21;;;;;;;3.55;0.73;;;6.50;99.90;;;;;;5007697;28;20030;-62
2021/12/08 12:45:00;;;;;;;2.22;0.73;;;6.50;99.90;;;;;;5005782;28;20772;-61
2021/12/08 12:47:28;;;;;;;2.05;0.75;;;6.60;99.90;;;;;;5005305;28;20041;-62
2021/12/08 12:50:00;;;;;;;7.35;1.23;;;6.50;99.90;;;;;;5005721;28;20037;-64
2021/12/08 12:52:33;;;;;;;2.25;1.30;;;6.50;99.90;;;;;;5010051;28;20084;-63
2021/12/08 12:55:10;;;;;;;3.53;0.80;;;6.50;99.90;;;;;;5000892;28;20504;-63
2021/12/08 12:58:04;;;;;;;1.88;0.50;;;6.50;99.90;;;;;;5009277;28;20096;-62
2021/12/08 13:00:34;;;;;;;6.28;0.60;;;6.50;99.90;;;;;;5007062;28;20322;-62
2021/12/08 13:03:01;;;;;;;6.63;1.00;;;6.50;99.90;;;;;;5002860;28;20053;-62
2021/12/08 13:05:52;;;;;;;4.13;1.08;;;6.50;99.90;;;;;;5007260;28;20034;-62
2021/12/08 13:08:35;;;;;;;3.92;1.15;;;6.60;99.90;;;;;;4999878;28;20033;-61
2021/12/08 13:11:10;;;;;;;5.63;0.70;;;6.60;99.90;;;;;;5007150;28;20409;-61
2021/12/08 13:13:52;;;;;;;3.75;0.82;;;6.60;99.90;;;;;;5010472;28;20048;-62
2021/12/08 13:16:33;;;;;;;7.03;0.82;;;6.60;99.90;;;;;;5010508;28;20092;-62
2021/12/08 13:19:01;;;;;;;1.67;0.50;;;6.60;99.90;;;;;;5004143;28;20121;-62
2021/12/08 13:21:48;;;;;;;7.18;1.05;;;6.60;99.90;;;;;;5009418;28;20032;-61
2021/12/08 13:24:33;;;;;;;6.38;0.90;;;6.60;99.90;;;;;;5004452;28;20046;-63
2021/12/08 13:27:04;;;;;;;3.28;1.10;;;6.60;99.90;;;;;;5004048;28;20425;-62
2021/12/08 13:29:33;;;;;;;7.32;1.13;;;6.60;99.90;;;;;;5006690;28;20038;-61
2021/12/08 13:32:09;;;;;;;8.75;0.93;;;6.60;99.90;;;;;;5005121;28;20046;-63
2021/12/08 13:34:35;;;;;;;5.63;1.00;;;6.60;99.90;;;;;;5006737;28;20030;-62
2021/12/08 13:37:29;;;;;;;2.58;1.38;;;6.70;99.90;;;;;;5006327;28;20129;-62
2021/12/08 13:40:09;;;;;;;3.92;0.70;;;6.80;99.90;;;;;;5006856;28;20034;-62
2021/12/08 13:42:55;;;;;;;8.25;1.02;;;6.80;99.90;;;;;;5004368;28;20042;-62
2021/12/08 13:45:21;;;;;;;4.03;0.95;;;6.90;99.90;;;;;;5007040;28;20041;-63
2021/12/08 13:47:48;;;;;;;5.43;1.05;;;6.90;99.90;;;;;;5005439;28;20036;-62
2021/12/08 13:50:16;;;;;;;2.10;0.90;;;7.00;99.90;;;;;;5002044;28;20034;-62
2021/12/08 13:53:12;;;;;;;5.20;0.88;;;6.90;99.90;;;;;;5003513;28;20490;-63
2021/12/08 13:55:44;;;;;;;3.10;1.05;;;7.00;99.90;;;;;;5009527;28;20044;-61
2021/12/08 13:58:15;;;;;;;4.18;1.38;;;7.00;99.90;;;;;;5005008;28;20038;-62
2021/12/08 14:00:44;;;;;;;4.53;1.00;;;7.00;99.90;;;;;;5005520;28;20037;-63